sensor_id;sensor_type;location;lat;lon;timestamp;noise_LAeq;noise_LA_min;noise_LA_max;noise_LA01;noise_LA95
67314;Laerm;57663;51.436;5.978;2022-10-19T00:00:09;41.28;37.22;49.48;;
67314;Laerm;57663;51.436;5.978;2022-10-19T00:00:20;38.32;37.03;39.83;;
67314;Laerm;57663;51.436;5.978;2022-10-19T00:00:30;38.37;37.06;39.59;;
67314;Laerm;57663;51.436;5.978;2022-10-19T00:00:40;38.74;37.07;39.85;;
67314;Laerm;57663;51.436;5.978;2022-10-19T00:00:59;38.94;37.54;40.00;;
67314;Laerm;57663;51.436;5.978;2022-10-19T00:01:13;39.24;37.66;41.54;;
67314;Laerm;57663;51.436;5.978;2022-10-19T00:01:24;64.65;40.27;73.11;;
67314;Laerm;57663;51.436;5.978;2022-10-19T00:01:35;67.29;63.50;70.63;;
67314;Laerm;57663;51.436;5.978;2022-10-19T00:01:45;66.02;42.93;74.06;;
67314;Laerm;57663;51.436;5.978;2022-10-19T00:01:56;41.16;39.18;48.11;;
67314;Laerm;57663;51.436;5.978;2022-10-19T00:02:06;39.97;38.43;41.49;;
67314;Laerm;57663;51.436;5.978;2022-10-19T00:02:16;39.87;38.08;43.91;;
67314;Laerm;57663;51.436;5.978;2022-10-19T00:02:26;39.62;38.51;41.26;;
67314;Laerm;57663;51.436;5.978;2022-10-19T00:02:37;39.26;38.16;40.55;;
67314;Laerm;57663;51.436;5.978;2022-10-19T00:02:47;38.69;37.14;40.14;;
67314;Laerm;57663;51.436;5.978;2022-10-19T00:02:57;38.47;37.17;40.10;;
67314;Laerm;57663;51.436;5.978;2022-10-19T00:03:08;38.59;36.77;42.64;;
67314;Laerm;57663;51.436;5.978;2022-10-19T00:03:18;38.48;36.84;40.45;;
67314;Laerm;57663;51.436;5.978;2022-10-19T00:03:28;38.59;37.26;40.09;;
67314;Laerm;57663;51.436;5.978;2022-10-19T00:03:39;38.54;37.16;40.43;;
67314;Laerm;57663;51.436;5.978;2022-10-19T00:03:53;38.51;37.22;39.95;;
67314;Laerm;57663;51.436;5.978;2022-10-19T00:04:03;38.51;37.28;40.28;;
67314;Laerm;57663;51.436;5.978;2022-10-19T00:04:14;38.79;37.27;42.57;;
67314;Laerm;57663;51.436;5.978;2022-10-19T00:04:24;38.62;37.14;39.85;;
67314;Laerm;57663;51.436;5.978;2022-10-19T00:04:34;38.64;37.50;40.06;;
67314;Laerm;57663;51.436;5.978;2022-10-19T00:04:45;38.76;37.25;40.39;;
67314;Laerm;57663;51.436;5.978;2022-10-19T00:04:55;38.78;37.26;40.39;;
67314;Laerm;57663;51.436;5.978;2022-10-19T00:05:06;38.96;37.16;44.14;;
67314;Laerm;57663;51.436;5.978;2022-10-19T00:05:16;38.75;37.53;40.56;;
67314;Laerm;57663;51.436;5.978;2022-10-19T00:05:27;38.71;37.06;40.22;;
67314;Laerm;57663;51.436;5.978;2022-10-19T00:05:37;40.63;37.04;50.99;;
67314;Laerm;57663;51.436;5.978;2022-10-19T00:05:47;40.87;39.30;43.34;;
67314;Laerm;57663;51.436;5.978;2022-10-19T00:05:58;41.07;38.69;44.89;;
67314;Laerm;57663;51.436;5.978;2022-10-19T00:06:26;38.81;37.50;40.26;;
67314;Laerm;57663;51.436;5.978;2022-10-19T00:06:36;38.65;37.28;39.97;;
67314;Laerm;57663;51.436;5.978;2022-10-19T00:06:47;38.61;37.19;40.35;;
67314;Laerm;57663;51.436;5.978;2022-10-19T00:06:57;38.57;37.34;40.09;;
67314;Laerm;57663;51.436;5.978;2022-10-19T00:07:07;38.30;37.10;39.72;;
67314;Laerm;57663;51.436;5.978;2022-10-19T00:07:17;38.49;36.86;40.02;;
67314;Laerm;57663;51.436;5.978;2022-10-19T00:07:28;38.61;37.49;40.02;;
67314;Laerm;57663;51.436;5.978;2022-10-19T00:07:38;38.31;36.98;39.88;;
67314;Laerm;57663;51.436;5.978;2022-10-19T00:07:48;38.00;36.19;39.58;;
67314;Laerm;57663;51.436;5.978;2022-10-19T00:07:59;38.10;36.29;40.02;;
67314;Laerm;57663;51.436;5.978;2022-10-19T00:08:10;38.18;36.77;39.78;;
67314;Laerm;57663;51.436;5.978;2022-10-19T00:08:21;38.20;36.97;39.62;;
67314;Laerm;57663;51.436;5.978;2022-10-19T00:08:31;38.38;36.53;40.26;;
67314;Laerm;57663;51.436;5.978;2022-10-19T00:08:42;38.52;37.14;40.00;;
67314;Laerm;57663;51.436;5.978;2022-10-19T00:08:59;38.39;36.85;40.04;;
67314;Laerm;57663;51.436;5.978;2022-10-19T00:09:12;38.34;37.16;39.71;;
67314;Laerm;57663;51.436;5.978;2022-10-19T00:09:22;38.21;36.89;39.67;;
67314;Laerm;57663;51.436;5.978;2022-10-19T00:09:33;38.42;37.00;39.71;;
67314;Laerm;57663;51.436;5.978;2022-10-19T00:09:43;38.40;37.08;39.78;;
67314;Laerm;57663;51.436;5.978;2022-10-19T00:09:53;38.51;37.32;40.35;;
67314;Laerm;57663;51.436;5.978;2022-10-19T00:10:03;38.42;36.92;39.76;;
67314;Laerm;57663;51.436;5.978;2022-10-19T00:10:14;38.30;36.89;40.02;;
67314;Laerm;57663;51.436;5.978;2022-10-19T00:10:24;38.48;37.45;40.14;;
67314;Laerm;57663;51.436;5.978;2022-10-19T00:10:35;38.63;36.51;40.32;;
67314;Laerm;57663;51.436;5.978;2022-10-19T00:10:48;38.53;36.79;40.08;;
67314;Laerm;57663;51.436;5.978;2022-10-19T00:10:59;38.87;37.58;40.74;;
67314;Laerm;57663;51.436;5.978;2022-10-19T00:11:10;38.64;37.31;40.37;;
67314;Laerm;57663;51.436;5.978;2022-10-19T00:11:21;38.38;36.78;39.69;;
67314;Laerm;57663;51.436;5.978;2022-10-19T00:11:33;38.34;36.78;40.35;;
67314;Laerm;57663;51.436;5.978;2022-10-19T00:11:44;38.90;37.49;40.63;;
67314;Laerm;57663;51.436;5.978;2022-10-19T00:11:55;38.65;37.46;40.25;;
67314;Laerm;57663;51.436;5.978;2022-10-19T00:12:05;38.64;37.08;40.37;;
67314;Laerm;57663;51.436;5.978;2022-10-19T00:12:16;38.79;37.57;40.32;;
67314;Laerm;57663;51.436;5.978;2022-10-19T00:12:26;38.74;37.25;40.34;;
67314;Laerm;57663;51.436;5.978;2022-10-19T00:12:37;38.63;36.82;40.17;;
67314;Laerm;57663;51.436;5.978;2022-10-19T00:12:47;38.31;37.12;39.87;;
67314;Laerm;57663;51.436;5.978;2022-10-19T00:12:58;38.27;36.93;40.08;;
67314;Laerm;57663;51.436;5.978;2022-10-19T00:13:08;38.39;37.05;40.08;;
67314;Laerm;57663;51.436;5.978;2022-10-19T00:13:18;38.66;37.25;40.03;;
67314;Laerm;57663;51.436;5.978;2022-10-19T00:13:28;38.77;37.20;40.10;;
67314;Laerm;57663;51.436;5.978;2022-10-19T00:13:39;38.96;37.09;51.42;;
67314;Laerm;57663;51.436;5.978;2022-10-19T00:13:50;38.64;37.14;39.82;;
67314;Laerm;57663;51.436;5.978;2022-10-19T00:14:01;38.70;37.18;40.37;;
67314;Laerm;57663;51.436;5.978;2022-10-19T00:14:12;38.42;37.25;39.80;;
67314;Laerm;57663;51.436;5.978;2022-10-19T00:14:23;38.49;37.08;39.99;;
67314;Laerm;57663;51.436;5.978;2022-10-19T00:14:33;38.56;36.95;39.62;;
67314;Laerm;57663;51.436;5.978;2022-10-19T00:14:43;38.44;37.00;39.75;;
67314;Laerm;57663;51.436;5.978;2022-10-19T00:14:54;38.65;37.22;40.09;;
67314;Laerm;57663;51.436;5.978;2022-10-19T00:15:04;38.53;36.93;39.87;;
67314;Laerm;57663;51.436;5.978;2022-10-19T00:15:15;38.45;37.41;39.65;;
67314;Laerm;57663;51.436;5.978;2022-10-19T00:15:25;37.89;36.61;39.23;;
67314;Laerm;57663;51.436;5.978;2022-10-19T00:15:38;38.28;36.58;39.68;;
67314;Laerm;57663;51.436;5.978;2022-10-19T00:15:49;38.64;36.87;40.19;;
67314;Laerm;57663;51.436;5.978;2022-10-19T00:16:00;38.82;37.08;40.30;;
67314;Laerm;57663;51.436;5.978;2022-10-19T00:16:11;38.43;37.10;39.96;;
67314;Laerm;57663;51.436;5.978;2022-10-19T00:16:22;38.74;37.43;44.17;;
67314;Laerm;57663;51.436;5.978;2022-10-19T00:16:34;38.78;37.29;40.08;;
67314;Laerm;57663;51.436;5.978;2022-10-19T00:16:46;38.66;37.20;40.01;;
67314;Laerm;57663;51.436;5.978;2022-10-19T00:16:56;38.12;36.73;39.41;;
67314;Laerm;57663;51.436;5.978;2022-10-19T00:17:07;38.15;36.80;40.08;;
67314;Laerm;57663;51.436;5.978;2022-10-19T00:17:17;38.30;36.86;39.82;;
67314;Laerm;57663;51.436;5.978;2022-10-19T00:17:27;38.19;36.81;39.58;;
67314;Laerm;57663;51.436;5.978;2022-10-19T00:17:38;37.99;36.89;39.69;;
67314;Laerm;57663;51.436;5.978;2022-10-19T00:17:49;38.19;36.62;39.50;;
67314;Laerm;57663;51.436;5.978;2022-10-19T00:17:59;37.84;36.49;39.10;;
67314;Laerm;57663;51.436;5.978;2022-10-19T00:18:09;37.88;36.69;39.43;;
67314;Laerm;57663;51.436;5.978;2022-10-19T00:18:20;37.92;36.68;39.53;;
67314;Laerm;57663;51.436;5.978;2022-10-19T00:18:30;38.20;36.93;39.72;;
67314;Laerm;57663;51.436;5.978;2022-10-19T00:18:41;38.32;36.94;39.89;;
67314;Laerm;57663;51.436;5.978;2022-10-19T00:18:55;38.26;37.12;40.31;;
67314;Laerm;57663;51.436;5.978;2022-10-19T00:19:06;38.23;36.88;42.80;;
67314;Laerm;57663;51.436;5.978;2022-10-19T00:19:18;38.44;37.21;39.69;;
67314;Laerm;57663;51.436;5.978;2022-10-19T00:19:29;38.23;37.04;39.57;;
67314;Laerm;57663;51.436;5.978;2022-10-19T00:19:39;38.07;36.83;39.81;;
67314;Laerm;57663;51.436;5.978;2022-10-19T00:19:50;38.02;36.65;39.54;;
67314;Laerm;57663;51.436;5.978;2022-10-19T00:20:00;38.34;37.13;39.83;;
67314;Laerm;57663;51.436;5.978;2022-10-19T00:20:10;38.37;36.92;40.21;;
67314;Laerm;57663;51.436;5.978;2022-10-19T00:20:21;38.68;37.19;40.30;;
67314;Laerm;57663;51.436;5.978;2022-10-19T00:20:31;38.59;37.07;40.47;;
67314;Laerm;57663;51.436;5.978;2022-10-19T00:20:42;38.59;37.35;40.54;;
67314;Laerm;57663;51.436;5.978;2022-10-19T00:21:00;38.60;37.33;40.26;;
67314;Laerm;57663;51.436;5.978;2022-10-19T00:21:12;38.55;37.38;39.90;;
67314;Laerm;57663;51.436;5.978;2022-10-19T00:21:23;38.32;37.03;40.03;;
67314;Laerm;57663;51.436;5.978;2022-10-19T00:21:34;38.39;36.98;39.82;;
67314;Laerm;57663;51.436;5.978;2022-10-19T00:21:45;38.46;37.31;40.07;;
67314;Laerm;57663;51.436;5.978;2022-10-19T00:21:55;38.30;37.01;39.54;;
67314;Laerm;57663;51.436;5.978;2022-10-19T00:22:05;38.22;36.66;39.32;;
67314;Laerm;57663;51.436;5.978;2022-10-19T00:22:16;38.11;36.46;39.55;;
67314;Laerm;57663;51.436;5.978;2022-10-19T00:22:26;38.41;37.25;40.23;;
67314;Laerm;57663;51.436;5.978;2022-10-19T00:22:36;38.37;37.16;39.95;;
67314;Laerm;57663;51.436;5.978;2022-10-19T00:22:48;38.34;37.15;39.84;;
67314;Laerm;57663;51.436;5.978;2022-10-19T00:22:58;38.40;36.94;39.68;;
67314;Laerm;57663;51.436;5.978;2022-10-19T00:23:08;38.64;36.80;40.19;;
67314;Laerm;57663;51.436;5.978;2022-10-19T00:23:19;38.56;37.17;40.11;;
67314;Laerm;57663;51.436;5.978;2022-10-19T00:23:30;38.48;36.96;40.40;;
67314;Laerm;57663;51.436;5.978;2022-10-19T00:23:41;38.38;36.45;39.99;;
67314;Laerm;57663;51.436;5.978;2022-10-19T00:23:51;38.73;37.24;40.19;;
67314;Laerm;57663;51.436;5.978;2022-10-19T00:24:01;38.18;36.64;40.96;;
67314;Laerm;57663;51.436;5.978;2022-10-19T00:24:12;38.72;37.28;40.25;;
67314;Laerm;57663;51.436;5.978;2022-10-19T00:24:22;38.77;37.36;40.32;;
67314;Laerm;57663;51.436;5.978;2022-10-19T00:24:32;38.47;37.24;39.93;;
67314;Laerm;57663;51.436;5.978;2022-10-19T00:24:43;38.33;36.77;39.52;;
67314;Laerm;57663;51.436;5.978;2022-10-19T00:24:55;38.19;37.21;40.10;;
67314;Laerm;57663;51.436;5.978;2022-10-19T00:25:05;38.22;36.93;43.71;;
67314;Laerm;57663;51.436;5.978;2022-10-19T00:25:16;38.26;36.81;39.94;;
67314;Laerm;57663;51.436;5.978;2022-10-19T00:25:26;38.25;37.11;39.46;;
67314;Laerm;57663;51.436;5.978;2022-10-19T00:25:36;38.15;36.75;39.34;;
67314;Laerm;57663;51.436;5.978;2022-10-19T00:25:53;38.26;36.56;39.93;;
67314;Laerm;57663;51.436;5.978;2022-10-19T00:26:04;38.41;36.80;41.17;;
67314;Laerm;57663;51.436;5.978;2022-10-19T00:26:14;38.22;37.11;39.64;;
67314;Laerm;57663;51.436;5.978;2022-10-19T00:26:24;38.50;37.14;40.05;;
67314;Laerm;57663;51.436;5.978;2022-10-19T00:26:35;38.44;37.06;39.91;;
67314;Laerm;57663;51.436;5.978;2022-10-19T00:26:46;38.63;37.53;40.17;;
67314;Laerm;57663;51.436;5.978;2022-10-19T00:26:56;38.76;37.47;40.85;;
67314;Laerm;57663;51.436;5.978;2022-10-19T00:27:06;38.56;37.21;39.91;;
67314;Laerm;57663;51.436;5.978;2022-10-19T00:27:17;38.55;37.41;40.12;;
67314;Laerm;57663;51.436;5.978;2022-10-19T00:27:27;38.65;37.38;40.48;;
67314;Laerm;57663;51.436;5.978;2022-10-19T00:27:37;38.79;37.33;40.30;;
67314;Laerm;57663;51.436;5.978;2022-10-19T00:27:48;38.51;37.30;39.90;;
67314;Laerm;57663;51.436;5.978;2022-10-19T00:27:58;38.73;37.45;40.50;;
67314;Laerm;57663;51.436;5.978;2022-10-19T00:28:09;38.74;37.10;40.07;;
67314;Laerm;57663;51.436;5.978;2022-10-19T00:28:19;38.55;37.31;40.96;;
67314;Laerm;57663;51.436;5.978;2022-10-19T00:28:30;38.57;37.05;39.89;;
67314;Laerm;57663;51.436;5.978;2022-10-19T00:28:40;38.66;37.33;40.32;;
67314;Laerm;57663;51.436;5.978;2022-10-19T00:28:52;38.73;37.37;40.24;;
67314;Laerm;57663;51.436;5.978;2022-10-19T00:29:03;38.53;37.11;40.48;;
67314;Laerm;57663;51.436;5.978;2022-10-19T00:29:13;38.22;36.77;39.85;;
67314;Laerm;57663;51.436;5.978;2022-10-19T00:29:24;38.31;36.56;39.89;;
67314;Laerm;57663;51.436;5.978;2022-10-19T00:29:34;38.57;37.30;39.98;;
67314;Laerm;57663;51.436;5.978;2022-10-19T00:29:45;38.61;37.17;39.69;;
67314;Laerm;57663;51.436;5.978;2022-10-19T00:29:55;38.80;37.42;40.61;;
67314;Laerm;57663;51.436;5.978;2022-10-19T00:30:05;38.48;37.07;42.42;;
67314;Laerm;57663;51.436;5.978;2022-10-19T00:30:16;38.78;37.57;40.17;;
67314;Laerm;57663;51.436;5.978;2022-10-19T00:30:26;38.66;37.31;39.94;;
67314;Laerm;57663;51.436;5.978;2022-10-19T00:30:37;38.74;37.63;40.28;;
67314;Laerm;57663;51.436;5.978;2022-10-19T00:30:47;38.77;37.43;41.23;;
67314;Laerm;57663;51.436;5.978;2022-10-19T00:31:04;38.42;37.33;40.15;;
67314;Laerm;57663;51.436;5.978;2022-10-19T00:31:15;38.63;37.01;39.93;;
67314;Laerm;57663;51.436;5.978;2022-10-19T00:31:26;38.26;37.09;40.02;;
67314;Laerm;57663;51.436;5.978;2022-10-19T00:31:36;38.21;36.98;39.48;;
67314;Laerm;57663;51.436;5.978;2022-10-19T00:31:47;38.50;36.89;39.92;;
67314;Laerm;57663;51.436;5.978;2022-10-19T00:31:58;38.49;37.19;39.95;;
67314;Laerm;57663;51.436;5.978;2022-10-19T00:32:08;40.39;37.08;49.02;;
67314;Laerm;57663;51.436;5.978;2022-10-19T00:32:18;38.63;37.46;40.10;;
67314;Laerm;57663;51.436;5.978;2022-10-19T00:32:29;38.23;37.14;39.98;;
67314;Laerm;57663;51.436;5.978;2022-10-19T00:32:39;38.50;37.18;39.94;;
67314;Laerm;57663;51.436;5.978;2022-10-19T00:32:49;38.48;37.17;40.31;;
67314;Laerm;57663;51.436;5.978;2022-10-19T00:32:59;38.77;37.82;40.61;;
67314;Laerm;57663;51.436;5.978;2022-10-19T00:33:10;38.59;37.19;41.06;;
67314;Laerm;57663;51.436;5.978;2022-10-19T00:33:20;38.24;36.48;40.07;;
67314;Laerm;57663;51.436;5.978;2022-10-19T00:33:31;38.34;37.09;40.22;;
67314;Laerm;57663;51.436;5.978;2022-10-19T00:33:45;37.99;36.75;39.10;;
67314;Laerm;57663;51.436;5.978;2022-10-19T00:33:58;38.09;36.70;39.89;;
67314;Laerm;57663;51.436;5.978;2022-10-19T00:34:08;38.40;37.23;39.99;;
67314;Laerm;57663;51.436;5.978;2022-10-19T00:34:19;38.24;37.01;40.01;;
67314;Laerm;57663;51.436;5.978;2022-10-19T00:34:29;38.05;36.68;39.11;;
67314;Laerm;57663;51.436;5.978;2022-10-19T00:34:40;38.12;36.85;39.61;;
67314;Laerm;57663;51.436;5.978;2022-10-19T00:34:50;38.10;36.80;39.35;;
67314;Laerm;57663;51.436;5.978;2022-10-19T00:35:00;38.39;36.85;39.78;;
67314;Laerm;57663;51.436;5.978;2022-10-19T00:35:12;38.45;37.21;40.30;;
67314;Laerm;57663;51.436;5.978;2022-10-19T00:35:22;38.56;36.99;40.85;;
67314;Laerm;57663;51.436;5.978;2022-10-19T00:35:33;38.10;36.90;39.67;;
67314;Laerm;57663;51.436;5.978;2022-10-19T00:35:43;38.08;36.80;39.25;;
67314;Laerm;57663;51.436;5.978;2022-10-19T00:35:53;38.03;36.43;39.59;;
67314;Laerm;57663;51.436;5.978;2022-10-19T00:36:04;38.14;36.89;39.48;;
67314;Laerm;57663;51.436;5.978;2022-10-19T00:36:22;38.94;37.05;40.52;;
67314;Laerm;57663;51.436;5.978;2022-10-19T00:36:34;38.73;37.39;40.22;;
67314;Laerm;57663;51.436;5.978;2022-10-19T00:36:45;39.70;37.91;42.04;;
67314;Laerm;57663;51.436;5.978;2022-10-19T00:36:55;38.23;36.59;39.50;;
67314;Laerm;57663;51.436;5.978;2022-10-19T00:37:06;38.39;36.97;39.65;;
67314;Laerm;57663;51.436;5.978;2022-10-19T00:37:16;38.14;37.23;39.28;;
67314;Laerm;57663;51.436;5.978;2022-10-19T00:37:26;38.38;37.13;40.13;;
67314;Laerm;57663;51.436;5.978;2022-10-19T00:37:38;38.12;36.66;39.69;;
67314;Laerm;57663;51.436;5.978;2022-10-19T00:37:48;38.34;36.97;39.70;;
67314;Laerm;57663;51.436;5.978;2022-10-19T00:37:59;38.13;36.85;39.37;;
67314;Laerm;57663;51.436;5.978;2022-10-19T00:38:09;38.28;36.99;39.54;;
67314;Laerm;57663;51.436;5.978;2022-10-19T00:38:19;38.40;37.29;39.46;;
67314;Laerm;57663;51.436;5.978;2022-10-19T00:38:30;38.17;36.92;40.28;;
67314;Laerm;57663;51.436;5.978;2022-10-19T00:38:40;38.13;36.88;40.18;;
67314;Laerm;57663;51.436;5.978;2022-10-19T00:38:51;37.97;36.72;39.51;;
67314;Laerm;57663;51.436;5.978;2022-10-19T00:39:02;38.10;36.73;39.52;;
67314;Laerm;57663;51.436;5.978;2022-10-19T00:39:13;37.88;36.41;39.53;;
67314;Laerm;57663;51.436;5.978;2022-10-19T00:39:24;37.93;36.55;39.35;;
67314;Laerm;57663;51.436;5.978;2022-10-19T00:39:34;38.06;36.63;40.42;;
67314;Laerm;57663;51.436;5.978;2022-10-19T00:39:44;38.25;36.85;39.72;;
67314;Laerm;57663;51.436;5.978;2022-10-19T00:39:55;37.89;36.44;44.72;;
67314;Laerm;57663;51.436;5.978;2022-10-19T00:40:05;38.20;36.72;39.64;;
67314;Laerm;57663;51.436;5.978;2022-10-19T00:40:16;37.87;36.70;39.23;;
67314;Laerm;57663;51.436;5.978;2022-10-19T00:40:26;37.83;36.40;39.24;;
67314;Laerm;57663;51.436;5.978;2022-10-19T00:40:37;37.97;36.40;39.67;;
67314;Laerm;57663;51.436;5.978;2022-10-19T00:40:47;38.52;36.99;40.02;;
67314;Laerm;57663;51.436;5.978;2022-10-19T00:40:58;38.10;36.62;39.25;;
67314;Laerm;57663;51.436;5.978;2022-10-19T00:41:08;38.40;37.08;40.04;;
67314;Laerm;57663;51.436;5.978;2022-10-19T00:41:19;38.48;37.17;39.76;;
67314;Laerm;57663;51.436;5.978;2022-10-19T00:41:30;38.25;37.15;39.74;;
67314;Laerm;57663;51.436;5.978;2022-10-19T00:41:41;38.34;36.99;39.93;;
67314;Laerm;57663;51.436;5.978;2022-10-19T00:41:52;38.07;36.80;40.57;;
67314;Laerm;57663;51.436;5.978;2022-10-19T00:42:02;38.22;37.15;39.67;;
67314;Laerm;57663;51.436;5.978;2022-10-19T00:42:13;38.12;36.84;39.75;;
67314;Laerm;57663;51.436;5.978;2022-10-19T00:42:23;38.64;37.28;41.09;;
67314;Laerm;57663;51.436;5.978;2022-10-19T00:42:33;38.59;37.25;39.92;;
67314;Laerm;57663;51.436;5.978;2022-10-19T00:42:43;38.87;36.80;41.17;;
67314;Laerm;57663;51.436;5.978;2022-10-19T00:42:54;37.96;36.82;39.50;;
67314;Laerm;57663;51.436;5.978;2022-10-19T00:43:09;38.03;36.44;39.33;;
67314;Laerm;57663;51.436;5.978;2022-10-19T00:43:24;38.34;37.12;39.69;;
67314;Laerm;57663;51.436;5.978;2022-10-19T00:45:02;38.23;36.54;39.53;;
67314;Laerm;57663;51.436;5.978;2022-10-19T00:45:14;38.31;37.08;40.64;;
67314;Laerm;57663;51.436;5.978;2022-10-19T00:45:25;38.29;36.93;39.95;;
67314;Laerm;57663;51.436;5.978;2022-10-19T00:45:35;38.13;36.50;39.68;;
67314;Laerm;57663;51.436;5.978;2022-10-19T00:45:46;38.26;37.04;39.97;;
67314;Laerm;57663;51.436;5.978;2022-10-19T00:45:56;38.16;36.85;39.54;;
67314;Laerm;57663;51.436;5.978;2022-10-19T00:46:11;38.09;36.59;40.64;;
67314;Laerm;57663;51.436;5.978;2022-10-19T00:46:22;38.15;36.53;39.72;;
67314;Laerm;57663;51.436;5.978;2022-10-19T00:46:34;38.23;37.00;39.63;;
67314;Laerm;57663;51.436;5.978;2022-10-19T00:46:45;38.09;36.71;39.58;;
67314;Laerm;57663;51.436;5.978;2022-10-19T00:47:01;38.01;36.59;39.57;;
67314;Laerm;57663;51.436;5.978;2022-10-19T00:47:12;38.04;36.89;39.41;;
67314;Laerm;57663;51.436;5.978;2022-10-19T00:47:23;38.19;36.70;39.65;;
67314;Laerm;57663;51.436;5.978;2022-10-19T00:47:33;38.52;37.16;40.04;;
67314;Laerm;57663;51.436;5.978;2022-10-19T00:47:44;38.08;36.71;39.66;;
67314;Laerm;57663;51.436;5.978;2022-10-19T00:47:54;38.23;36.96;40.12;;
67314;Laerm;57663;51.436;5.978;2022-10-19T00:48:05;38.56;37.30;40.17;;
67314;Laerm;57663;51.436;5.978;2022-10-19T00:48:16;38.71;37.31;40.61;;
67314;Laerm;57663;51.436;5.978;2022-10-19T00:48:29;38.57;37.25;40.44;;
67314;Laerm;57663;51.436;5.978;2022-10-19T00:48:40;38.41;37.25;39.64;;
67314;Laerm;57663;51.436;5.978;2022-10-19T00:48:52;38.11;36.62;39.61;;
67314;Laerm;57663;51.436;5.978;2022-10-19T00:49:08;38.30;36.76;39.87;;
67314;Laerm;57663;51.436;5.978;2022-10-19T00:49:24;38.49;36.47;44.18;;
67314;Laerm;57663;51.436;5.978;2022-10-19T00:49:36;38.93;37.31;47.26;;
67314;Laerm;57663;51.436;5.978;2022-10-19T00:49:48;38.24;37.03;39.81;;
67314;Laerm;57663;51.436;5.978;2022-10-19T00:49:58;38.25;37.04;39.29;;
67314;Laerm;57663;51.436;5.978;2022-10-19T00:50:09;38.11;37.02;39.36;;
67314;Laerm;57663;51.436;5.978;2022-10-19T00:50:20;38.21;36.72;39.84;;
67314;Laerm;57663;51.436;5.978;2022-10-19T00:50:30;38.34;37.18;39.90;;
67314;Laerm;57663;51.436;5.978;2022-10-19T00:50:41;37.96;36.73;39.19;;
67314;Laerm;57663;51.436;5.978;2022-10-19T00:50:52;38.40;37.25;39.97;;
67314;Laerm;57663;51.436;5.978;2022-10-19T00:51:03;38.40;36.74;39.90;;
67314;Laerm;57663;51.436;5.978;2022-10-19T00:51:13;38.06;36.95;39.76;;
67314;Laerm;57663;51.436;5.978;2022-10-19T00:51:24;38.04;36.93;39.11;;
67314;Laerm;57663;51.436;5.978;2022-10-19T00:51:38;38.49;36.99;40.09;;
67314;Laerm;57663;51.436;5.978;2022-10-19T00:51:50;38.78;37.43;40.25;;
67314;Laerm;57663;51.436;5.978;2022-10-19T00:52:02;38.66;37.39;40.25;;
67314;Laerm;57663;51.436;5.978;2022-10-19T00:52:14;38.69;37.11;40.25;;
67314;Laerm;57663;51.436;5.978;2022-10-19T00:52:26;38.58;37.13;40.75;;
67314;Laerm;57663;51.436;5.978;2022-10-19T00:52:36;38.55;37.37;39.94;;
67314;Laerm;57663;51.436;5.978;2022-10-19T00:52:47;38.64;37.21;40.21;;
67314;Laerm;57663;51.436;5.978;2022-10-19T00:52:57;38.39;37.15;40.14;;
67314;Laerm;57663;51.436;5.978;2022-10-19T00:53:08;38.46;37.23;39.84;;
67314;Laerm;57663;51.436;5.978;2022-10-19T00:53:19;38.32;36.82;39.97;;
67314;Laerm;57663;51.436;5.978;2022-10-19T00:53:29;38.43;36.73;41.84;;
67314;Laerm;57663;51.436;5.978;2022-10-19T00:53:40;38.50;37.41;40.32;;
67314;Laerm;57663;51.436;5.978;2022-10-19T00:53:51;38.20;37.05;40.07;;
67314;Laerm;57663;51.436;5.978;2022-10-19T00:54:02;38.17;36.84;39.49;;
67314;Laerm;57663;51.436;5.978;2022-10-19T00:54:14;38.28;36.99;39.79;;
67314;Laerm;57663;51.436;5.978;2022-10-19T00:54:25;38.29;36.98;39.94;;
67314;Laerm;57663;51.436;5.978;2022-10-19T00:54:36;38.07;36.83;39.45;;
67314;Laerm;57663;51.436;5.978;2022-10-19T00:54:47;38.48;37.18;39.94;;
67314;Laerm;57663;51.436;5.978;2022-10-19T00:54:59;38.62;37.02;40.14;;
67314;Laerm;57663;51.436;5.978;2022-10-19T00:55:10;38.65;37.20;40.08;;
67314;Laerm;57663;51.436;5.978;2022-10-19T00:55:20;38.42;36.95;40.14;;
67314;Laerm;57663;51.436;5.978;2022-10-19T00:55:31;38.32;37.13;40.40;;
67314;Laerm;57663;51.436;5.978;2022-10-19T00:55:42;38.33;37.24;39.91;;
67314;Laerm;57663;51.436;5.978;2022-10-19T00:55:53;38.45;36.94;39.71;;
67314;Laerm;57663;51.436;5.978;2022-10-19T00:56:05;38.61;37.19;40.10;;
67314;Laerm;57663;51.436;5.978;2022-10-19T00:56:16;38.69;37.51;40.27;;
67314;Laerm;57663;51.436;5.978;2022-10-19T00:56:27;38.91;37.49;40.10;;
67314;Laerm;57663;51.436;5.978;2022-10-19T00:56:38;38.67;37.14;40.28;;
67314;Laerm;57663;51.436;5.978;2022-10-19T00:56:51;38.60;36.71;40.79;;
67314;Laerm;57663;51.436;5.978;2022-10-19T00:57:02;38.37;36.98;39.96;;
67314;Laerm;57663;51.436;5.978;2022-10-19T00:57:13;38.87;37.40;41.40;;
67314;Laerm;57663;51.436;5.978;2022-10-19T00:57:25;38.68;37.44;40.20;;
67314;Laerm;57663;51.436;5.978;2022-10-19T00:57:37;38.71;37.42;40.26;;
67314;Laerm;57663;51.436;5.978;2022-10-19T00:57:48;38.86;37.60;40.23;;
67314;Laerm;57663;51.436;5.978;2022-10-19T00:57:59;38.66;37.31;40.11;;
67314;Laerm;57663;51.436;5.978;2022-10-19T00:58:11;38.93;37.65;40.54;;
67314;Laerm;57663;51.436;5.978;2022-10-19T00:58:22;38.72;37.54;40.41;;
67314;Laerm;57663;51.436;5.978;2022-10-19T00:58:32;38.65;37.16;40.12;;
67314;Laerm;57663;51.436;5.978;2022-10-19T00:58:44;38.65;37.32;40.22;;
67314;Laerm;57663;51.436;5.978;2022-10-19T00:58:54;38.62;37.54;39.88;;
67314;Laerm;57663;51.436;5.978;2022-10-19T00:59:05;38.20;36.86;39.76;;
67314;Laerm;57663;51.436;5.978;2022-10-19T00:59:17;38.69;37.26;40.59;;
67314;Laerm;57663;51.436;5.978;2022-10-19T00:59:28;38.28;37.00;39.86;;
67314;Laerm;57663;51.436;5.978;2022-10-19T00:59:42;38.31;36.94;40.40;;
67314;Laerm;57663;51.436;5.978;2022-10-19T00:59:53;38.53;37.09;40.24;;
67314;Laerm;57663;51.436;5.978;2022-10-19T01:00:05;38.84;37.40;40.83;;
67314;Laerm;57663;51.436;5.978;2022-10-19T01:00:16;41.98;37.10;49.50;;
67314;Laerm;57663;51.436;5.978;2022-10-19T01:00:27;38.25;37.15;40.69;;
67314;Laerm;57663;51.436;5.978;2022-10-19T01:00:37;38.50;37.04;40.45;;
67314;Laerm;57663;51.436;5.978;2022-10-19T01:00:48;38.59;37.27;40.46;;
67314;Laerm;57663;51.436;5.978;2022-10-19T01:00:59;38.33;36.94;39.86;;
67314;Laerm;57663;51.436;5.978;2022-10-19T01:01:13;38.24;36.99;39.58;;
67314;Laerm;57663;51.436;5.978;2022-10-19T01:01:24;38.31;36.64;39.60;;
67314;Laerm;57663;51.436;5.978;2022-10-19T01:01:36;38.27;36.71;39.72;;
67314;Laerm;57663;51.436;5.978;2022-10-19T01:01:46;37.96;36.40;39.22;;
67314;Laerm;57663;51.436;5.978;2022-10-19T01:01:58;38.16;37.12;40.09;;
67314;Laerm;57663;51.436;5.978;2022-10-19T01:02:09;38.22;36.81;39.62;;
67314;Laerm;57663;51.436;5.978;2022-10-19T01:02:20;38.48;37.14;40.15;;
67314;Laerm;57663;51.436;5.978;2022-10-19T01:02:30;38.19;37.06;39.62;;
67314;Laerm;57663;51.436;5.978;2022-10-19T01:02:40;38.25;36.72;45.77;;
67314;Laerm;57663;51.436;5.978;2022-10-19T01:02:51;38.04;36.39;39.54;;
67314;Laerm;57663;51.436;5.978;2022-10-19T01:03:01;37.95;36.65;39.68;;
67314;Laerm;57663;51.436;5.978;2022-10-19T01:03:12;38.11;37.01;39.74;;
67314;Laerm;57663;51.436;5.978;2022-10-19T01:03:23;38.25;37.01;39.84;;